createdAt,value
2018-01-20T00:14:07.330Z,87.50
2018-01-20T00:24:54.261Z,87.80
2018-01-20T00:30:41.368Z,87.60
2018-01-20T00:35:58.410Z,87.60
2018-01-20T00:41:12.190Z,87.70
2018-01-20T00:56:42.426Z,87.90
2018-01-20T01:01:54.583Z,87.80
2018-01-20T01:07:06.560Z,87.80
2018-01-20T01:12:35.352Z,87.60
2018-01-20T01:23:21.552Z,87.60
2018-01-20T01:34:23.623Z,87.40
2018-01-20T01:50:12.995Z,87.60
2018-01-20T01:55:22.227Z,87.60
2018-01-20T02:11:02.542Z,88.00
2018-01-20T02:16:16.126Z,88.00
2018-01-20T02:59:16.800Z,87.70
2018-01-20T03:10:22.886Z,86.80
2018-01-20T04:04:08.874Z,85.10
2018-01-20T04:31:23.954Z,86.00
2018-01-20T04:37:57.081Z,86.30
2018-01-20T04:43:18.099Z,86.30
2018-01-20T04:54:16.998Z,86.50
2018-01-20T05:13:08.440Z,87.00
2018-01-20T05:18:23.557Z,86.90
2018-01-20T05:23:44.181Z,87.00
2018-01-20T05:28:50.561Z,87.10
2018-01-20T05:33:54.300Z,87.20
2018-01-20T05:38:57.413Z,87.90
2018-01-20T05:44:02.141Z,87.90
2018-01-20T05:49:06.271Z,88.00
2018-01-20T05:54:13.281Z,87.90
2018-01-20T05:59:17.929Z,87.90
2018-01-20T06:09:31.036Z,88.30
2018-01-20T06:14:33.950Z,88.20
2018-01-20T06:19:36.590Z,88.40
2018-01-20T06:24:41.100Z,88.30
2018-01-20T06:29:44.585Z,88.80
2018-01-20T06:34:47.545Z,89.10
2018-01-20T06:39:53.110Z,89.60
2018-01-20T06:44:59.521Z,89.50
2018-01-20T06:50:02.781Z,89.80
2018-01-20T06:55:08.905Z,89.30
2018-01-20T07:00:13.495Z,89.40
2018-01-20T07:05:17.155Z,89.30
2018-01-20T07:10:20.982Z,89.60
2018-01-20T07:15:23.955Z,89.70
2018-01-20T07:20:27.693Z,89.70
2018-01-20T07:25:31.097Z,89.50
2018-01-20T07:30:33.801Z,89.60
2018-01-20T07:35:37.483Z,89.30
2018-01-20T07:40:40.489Z,89.20
2018-01-20T07:45:43.474Z,89.40
2018-01-20T07:50:46.343Z,89.30
2018-01-20T07:55:50.830Z,89.30
2018-01-20T08:00:54.055Z,89.20
2018-01-20T08:05:57.092Z,89.20
2018-01-20T08:10:59.935Z,89.20
2018-01-20T08:16:03.245Z,89.40
2018-01-20T08:21:06.702Z,89.70
2018-01-20T08:26:11.440Z,90.00
2018-01-20T08:31:17.340Z,89.80
2018-01-20T08:36:21.184Z,89.80
2018-01-20T08:41:26.791Z,89.90
2018-01-20T08:46:38.307Z,89.70
2018-01-20T08:51:41.672Z,89.70
2018-01-20T08:56:44.644Z,89.60
2018-01-20T09:01:47.664Z,90.10
2018-01-20T09:06:50.519Z,89.50
2018-01-20T09:11:53.155Z,89.50
2018-01-20T09:16:55.848Z,89.50
2018-01-20T09:21:59.006Z,89.40
2018-01-20T09:27:05.009Z,89.40
2018-01-20T09:32:10.020Z,89.40
2018-01-20T09:37:21.113Z,89.30
2018-01-20T09:42:24.125Z,89.10
2018-01-20T09:47:26.824Z,88.70
2018-01-20T09:52:30.072Z,87.70
2018-01-20T09:57:35.178Z,87.20
2018-01-20T10:02:40.071Z,85.60
2018-01-20T10:07:45.505Z,86.20
2018-01-20T10:12:52.594Z,86.70
2018-01-20T10:17:56.891Z,87.10
2018-01-20T10:23:02.286Z,86.90
2018-01-20T10:28:05.417Z,86.20
2018-01-20T10:33:08.584Z,86.70
2018-01-20T10:38:11.628Z,85.30
2018-01-20T10:43:15.572Z,85.20
2018-01-20T10:53:28.406Z,84.20
2018-01-20T10:58:32.550Z,84.00
2018-01-20T11:03:37.478Z,83.30
2018-01-20T11:08:44.247Z,83.80
2018-01-20T11:13:48.383Z,83.80
2018-01-20T11:18:51.870Z,83.60
2018-01-20T11:29:10.500Z,84.70
2018-01-20T11:34:19.347Z,85.00
2018-01-20T11:39:22.516Z,84.90
2018-01-20T11:44:26.653Z,84.70
2018-01-20T11:49:30.290Z,84.60
2018-01-20T11:54:34.027Z,84.70
2018-01-20T11:59:43.383Z,85.40
2018-01-20T12:04:47.421Z,85.90
2018-01-20T12:09:52.602Z,85.00
2018-01-20T12:14:56.948Z,85.00
2018-01-20T12:20:01.282Z,84.70
2018-01-20T12:25:05.812Z,84.70
2018-01-20T12:30:08.992Z,84.70
2018-01-20T12:35:17.718Z,85.10
2018-01-20T12:40:23.284Z,84.90
2018-01-20T12:45:28.610Z,85.20
2018-01-20T12:50:33.487Z,85.30
2018-01-20T12:55:37.277Z,85.10
2018-01-20T13:00:44.727Z,85.00
2018-01-20T13:11:03.515Z,85.10
2018-01-20T13:16:06.220Z,85.20
2018-01-20T13:21:12.936Z,84.80
2018-01-20T13:26:21.852Z,84.90
2018-01-20T13:31:26.767Z,84.70
2018-01-20T13:36:41.841Z,84.60
2018-01-20T13:41:45.321Z,84.80
2018-01-20T13:52:18.266Z,85.30
2018-01-20T13:57:22.527Z,85.20
2018-01-20T14:02:25.169Z,85.20
2018-01-20T14:07:31.876Z,85.50
2018-01-20T14:12:34.727Z,85.70
2018-01-20T14:17:39.688Z,85.50
2018-01-20T14:22:42.383Z,85.70
2018-01-20T14:27:45.663Z,85.80
2018-01-20T14:32:50.392Z,85.80
2018-01-20T14:37:54.794Z,85.90
2018-01-20T14:42:58.565Z,86.00
2018-01-20T14:48:01.303Z,85.90
2018-01-20T14:53:03.854Z,86.10
2018-01-20T14:58:07.958Z,86.10
2018-01-20T15:03:12.802Z,86.10
2018-01-20T15:08:17.453Z,85.90
2018-01-20T15:13:22.837Z,85.80
2018-01-20T15:18:29.161Z,86.10
2018-01-20T15:23:32.824Z,86.00
2018-01-20T15:28:35.965Z,85.90
2018-01-20T15:33:39.794Z,86.00
2018-01-20T15:38:42.967Z,86.00
2018-01-20T15:43:49.701Z,86.10
2018-01-20T15:48:57.429Z,86.30
2018-01-20T15:54:12.548Z,86.20
2018-01-20T15:59:15.206Z,87.00
2018-01-20T16:04:21.035Z,86.50
2018-01-20T16:09:31.291Z,86.80
2018-01-20T16:14:33.941Z,86.60
2018-01-20T16:19:36.481Z,86.80
2018-01-20T16:24:39.054Z,86.80
2018-01-20T16:29:45.215Z,86.90
2018-01-20T16:34:47.864Z,86.90
2018-01-20T16:39:50.414Z,87.00
2018-01-20T16:44:58.558Z,87.10
2018-01-20T16:50:01.210Z,87.20
2018-01-20T16:55:03.751Z,87.20
2018-01-20T17:00:06.315Z,87.30
2018-01-20T17:05:08.856Z,87.20
2018-01-20T17:10:17.365Z,87.20
2018-01-20T17:15:38.372Z,87.20
2018-01-20T17:20:41.058Z,87.20
2018-01-20T17:25:43.598Z,87.40
2018-01-20T17:30:46.172Z,87.20
2018-01-20T17:35:48.729Z,87.30
2018-01-20T17:41:00.209Z,87.30
2018-01-20T17:46:13.464Z,87.30
2018-01-20T17:51:21.410Z,87.20
2018-01-20T17:56:28.196Z,87.50
2018-01-20T18:12:17.300Z,87.30
2018-01-20T18:24:23.544Z,87.50
2018-01-20T18:35:03.120Z,87.70
2018-01-20T18:45:45.357Z,87.90
2018-01-20T18:50:55.765Z,87.90
2018-01-20T18:56:03.221Z,88.10
2018-01-20T19:01:11.954Z,88.00
2018-01-20T19:06:21.722Z,87.90
2018-01-20T19:11:43.713Z,87.80
2018-01-20T19:16:51.269Z,88.00
2018-01-20T19:22:26.058Z,88.30
2018-01-20T19:27:33.242Z,88.10
2018-01-20T19:32:38.775Z,88.20
2018-01-20T19:37:51.171Z,88.10
2018-01-20T19:42:58.056Z,87.90
2018-01-20T19:48:05.330Z,88.30
2018-01-20T19:53:20.186Z,88.30
2018-01-20T19:58:32.049Z,88.40
2018-01-20T20:03:47.220Z,88.30
2018-01-20T20:08:53.940Z,88.50
2018-01-20T20:19:18.909Z,88.40
2018-01-20T20:24:26.377Z,88.20
2018-01-20T20:29:29.724Z,88.60
2018-01-20T20:34:32.250Z,88.50
2018-01-20T20:39:35.739Z,88.60
2018-01-20T20:44:39.106Z,88.70
2018-01-20T20:49:41.664Z,88.70
2018-01-20T20:54:45.117Z,88.80
2018-01-20T20:59:47.656Z,88.70
2018-01-20T21:04:50.217Z,89.00
2018-01-20T21:10:01.038Z,88.80
2018-01-20T21:15:03.683Z,88.90
2018-01-20T21:20:06.233Z,88.80
2018-01-20T21:25:08.782Z,89.00
2018-01-20T21:30:11.330Z,89.00
2018-01-20T21:35:13.982Z,88.90
2018-01-20T21:40:16.524Z,89.00
2018-01-20T21:45:22.765Z,89.00
2018-01-20T21:50:26.158Z,89.30
2018-01-20T21:55:29.601Z,89.10
2018-01-20T22:00:32.224Z,89.10
2018-01-20T22:05:35.537Z,89.30
2018-01-20T22:10:38.087Z,89.30
2018-01-20T22:15:41.430Z,89.20
2018-01-20T22:20:43.958Z,89.20
2018-01-20T22:25:46.488Z,89.30
2018-01-20T22:30:49.039Z,89.50
2018-01-20T22:35:51.571Z,89.40
2018-01-20T22:40:54.106Z,90.00
2018-01-20T22:45:57.417Z,89.70
2018-01-20T22:50:59.964Z,89.60
2018-01-20T22:56:02.495Z,89.60
2018-01-20T23:01:10.774Z,89.60
2018-01-20T23:06:36.097Z,89.70
2018-01-20T23:11:38.710Z,89.70
2018-01-20T23:16:41.262Z,89.80
2018-01-20T23:21:44.582Z,89.90
2018-01-20T23:26:47.164Z,89.90
2018-01-20T23:31:49.717Z,89.90
2018-01-20T23:36:52.262Z,89.70
2018-01-20T23:41:55.566Z,89.80
2018-01-20T23:46:58.142Z,89.70
2018-01-20T23:52:00.714Z,89.80
2018-01-20T23:57:03.276Z,89.70
